Time;durP1;ratioP1;P1;durP2;ratioP2;P2;SDS_P1;SDS_P2;PMS_P1;PMS_P2;Temp;Humidity;BMP_temperature;BMP_pressure;BME280_temperature;BME280_humidity;BME280_pressure;Samples;Min_cycle;Max_cycle;Signal;HPM_P1;HPM_P2
2022/06/02 00:00:20;;;;;;;26.88;16.33;;;;;;;8.82;100.00;101635.09;5081712;28;20086;-79
2022/06/02 00:03:03;;;;;;;24.85;15.85;;;;;;;8.79;100.00;101638.03;5069732;28;20062;-78
2022/06/02 00:05:52;;;;;;;23.75;14.80;;;;;;;8.81;100.00;101647.00;5085211;28;20024;-79
2022/06/02 00:08:31;;;;;;;20.90;15.05;;;;;;;8.63;100.00;101640.75;5062674;28;20028;-79
2022/06/02 00:11:26;;;;;;;26.65;16.25;;;;;;;8.59;100.00;101640.06;5090391;28;20041;-79
2022/06/02 00:13:59;;;;;;;24.35;15.52;;;;;;;8.54;100.00;101636.69;5060711;28;20547;-79
2022/06/02 00:16:58;;;;;;;25.90;15.95;;;;;;;8.57;100.00;101639.25;5065795;28;20036;-79
2022/06/02 00:19:23;;;;;;;28.95;16.15;;;;;;;8.46;100.00;101634.44;5074987;28;20057;-79
2022/06/02 00:21:59;;;;;;;28.77;17.33;;;;;;;8.32;100.00;101634.31;5082749;28;20040;-77
2022/06/02 00:24:49;;;;;;;26.73;17.55;;;;;;;8.31;100.00;101645.31;5071412;28;20036;-79
2022/06/02 00:27:27;;;;;;;27.73;17.90;;;;;;;8.31;100.00;101645.31;5069696;28;20040;-80
2022/06/02 00:30:09;;;;;;;26.98;17.30;;;;;;;8.34;100.00;101650.59;5082922;28;21146;-79
2022/06/02 00:32:43;;;;;;;29.92;18.65;;;;;;;8.29;100.00;101648.13;5087736;28;20033;-80
2022/06/02 00:35:32;;;;;;;26.58;16.67;;;;;;;8.28;100.00;101647.25;5087173;28;20029;-79
2022/06/02 00:38:11;;;;;;;29.70;18.63;;;;;;;8.29;100.00;101639.94;5075162;28;20115;-79
2022/06/02 00:40:37;;;;;;;33.03;18.10;;;;;;;8.24;100.00;101645.66;5086370;28;20032;-79
2022/06/02 00:43:18;;;;;;;36.42;19.17;;;;;;;8.13;100.00;101641.78;5053887;28;20052;-78
2022/06/02 00:45:49;;;;;;;33.22;19.73;;;;;;;8.03;100.00;101641.41;5086059;28;20040;-79
2022/06/02 00:48:43;;;;;;;32.25;19.40;;;;;;;8.04;100.00;101646.78;5081700;28;20067;-79
2022/06/02 00:51:11;;;;;;;;;;;;;;;8.11;100.00;101655.50;5077014;28;20033;-79
2022/06/02 01:00:11;;;;;;;28.10;17.92;;;;;;;8.20;100.00;101652.25;5084214;28;20090;-78
2022/06/02 01:02:51;;;;;;;33.55;18.98;;;;;;;8.09;100.00;101655.59;5060497;28;20609;-79
2022/06/02 01:05:27;;;;;;;32.53;20.70;;;;;;;7.98;100.00;101651.69;5093401;28;20035;-77
2022/06/02 01:08:20;;;;;;;34.67;22.05;;;;;;;8.00;100.00;101657.94;5087758;28;20597;-78
2022/06/02 01:11:13;;;;;;;32.50;19.70;;;;;;;8.03;100.00;101657.78;5075268;28;20029;-79
2022/06/02 01:14:09;;;;;;;33.67;20.60;;;;;;;7.99;100.00;101659.78;5087123;28;20032;-78
2022/06/02 01:16:48;;;;;;;35.63;21.05;;;;;;;7.93;100.00;101670.16;5066284;28;20037;-78
2022/06/02 01:19:44;;;;;;;36.00;21.60;;;;;;;7.87;100.00;101663.19;5077789;28;20029;-77
2022/06/02 01:22:38;;;;;;;32.15;19.88;;;;;;;7.97;100.00;101658.09;5076833;28;20033;-78
2022/06/02 01:25:22;;;;;;;32.58;19.38;;;;;;;7.93;100.00;101661.97;5087235;28;20043;-79
2022/06/02 01:28:25;;;;;;;31.95;19.90;;;;;;;7.85;100.00;101652.34;5072570;28;20044;-78
2022/06/02 01:30:53;;;;;;;33.08;21.17;;;;;;;8.09;100.00;101658.31;5081675;28;20036;-78
2022/06/02 01:33:31;;;;;;;37.75;20.95;;;;;;;8.14;100.00;101660.78;5087917;28;20040;-77
2022/06/02 01:36:12;;;;;;;38.47;21.67;;;;;;;8.10;100.00;101654.63;5074539;28;20082;-78
2022/06/02 01:39:16;;;;;;;40.60;19.40;;;;;;;8.18;100.00;101658.75;5089614;28;20028;-78
2022/06/02 01:42:15;;;;;;;28.20;18.38;;;;;;;7.93;100.00;101653.81;5062818;28;20075;-79
2022/06/02 01:45:04;;;;;;;34.22;20.25;;;;;;;7.73;100.00;101655.78;5079435;28;20032;-78
2022/06/02 01:47:40;;;;;;;32.17;19.90;;;;;;;7.76;100.00;101660.19;5063347;28;20486;-78
2022/06/02 01:50:31;;;;;;;29.05;18.73;;;;;;;7.74;100.00;101660.28;5092480;28;20063;-79
2022/06/02 01:53:03;;;;;;;33.45;19.55;;;;;;;7.87;100.00;101658.63;5096875;28;20089;-79
2022/06/02 01:55:57;;;;;;;34.00;20.13;;;;;;;7.69;100.00;101665.06;5086538;28;20036;-78
2022/06/02 01:58:53;;;;;;;31.23;19.20;;;;;;;7.53;100.00;101662.31;5086898;28;20483;-80
2022/06/02 02:01:29;;;;;;;36.08;20.15;;;;;;;7.59;100.00;101655.63;5082072;28;20036;-78
2022/06/02 02:04:26;;;;;;;26.95;18.27;;;;;;;7.42;100.00;101668.31;5077425;28;20032;-78
2022/06/02 02:06:57;;;;;;;35.55;20.67;;;;;;;7.38;100.00;101671.28;5087147;28;20063;-78
2022/06/02 02:09:41;;;;;;;34.20;20.33;;;;;;;7.46;100.00;101669.94;5083891;28;20159;-80
2022/06/02 02:12:33;;;;;;;29.50;18.77;;;;;;;7.46;100.00;101667.19;5093466;28;20062;-79
2022/06/02 02:15:43;;;;;;;29.55;18.52;;;;;;;7.44;100.00;101673.69;5085674;28;20361;-78
2022/06/02 02:18:18;;;;;;;28.13;17.05;;;;;;;7.48;100.00;101668.00;5031816;28;20123;-77
2022/06/02 02:21:13;;;;;;;31.08;18.23;;;;;;;7.47;100.00;101674.41;5087284;28;20040;-79
2022/06/02 02:23:53;;;;;;;31.05;18.08;;;;;;;7.59;100.00;101669.25;5080222;28;20052;-80
2022/06/02 02:26:24;;;;;;;31.25;18.48;;;;;;;7.40;100.00;101659.34;5085032;28;20035;-78
2022/06/02 02:29:00;;;;;;;28.25;16.88;;;;;;;7.62;100.00;101674.53;5079349;28;20052;-79
2022/06/02 02:31:26;;;;;;;27.48;16.67;;;;;;;7.64;100.00;101680.78;5091917;28;20433;-78
2022/06/02 02:34:18;;;;;;;30.95;18.17;;;;;;;7.61;100.00;101680.94;5090971;28;20036;-78
2022/06/02 02:37:31;;;;;;;27.52;17.50;;;;;;;7.53;100.00;101681.38;5073456;28;20059;-78
2022/06/02 02:40:22;;;;;;;21.15;14.40;;;;;;;7.44;100.00;101673.69;4994486;28;20417;-78
2022/06/02 02:43:06;;;;;;;21.48;15.05;;;;;;;7.32;100.00;101678.81;4996065;28;20041;-78
2022/06/02 02:45:51;;;;;;;23.85;15.45;;;;;;;7.17;100.00;101675.03;5057436;28;20033;-79
2022/06/02 02:48:36;;;;;;;27.33;16.55;;;;;;;7.04;100.00;101678.50;5092425;28;20491;-78
2022/06/02 02:51:04;;;;;;;25.48;15.35;;;;;;;6.99;100.00;101676.00;5072382;28;20430;-78
2022/06/02 02:53:51;;;;;;;27.38;17.38;;;;;;;6.91;100.00;101676.38;5066190;28;20377;-78
2022/06/02 02:56:27;;;;;;;36.42;18.45;;;;;;;6.94;100.00;101673.50;5078724;28;20035;-78
2022/06/02 02:59:06;;;;;;;33.95;19.33;;;;;;;6.98;100.00;101690.56;5081781;28;21738;-78
2022/06/02 03:01:58;;;;;;;33.50;19.15;;;;;;;7.01;100.00;101690.41;5081625;28;20032;-77
2022/06/02 03:04:54;;;;;;;29.98;19.27;;;;;;;6.99;100.00;101689.59;5079032;28;20048;-78
2022/06/02 03:07:20;;;;;;;34.80;20.42;;;;;;;6.98;100.00;101686.00;5082923;28;20067;-79
2022/06/02 03:10:01;;;;;;;36.38;21.35;;;;;;;7.04;100.00;101695.69;5080516;28;20029;-79
2022/06/02 03:12:54;;;;;;;36.13;22.48;;;;;;;7.21;100.00;101692.09;5080847;28;20060;-79
2022/06/02 03:15:46;;;;;;;35.33;22.23;;;;;;;7.40;100.00;101697.47;5085013;28;20051;-78
2022/06/02 03:18:24;;;;;;;37.90;21.67;;;;;;;7.41;100.00;101695.63;5078501;28;20488;-78
2022/06/02 03:21:19;;;;;;;43.67;23.13;;;;;;;7.15;100.00;101695.16;5082691;28;20035;-79
2022/06/02 03:24:04;;;;;;;34.03;21.80;;;;;;;7.04;100.00;101708.44;5075395;28;20470;-79
2022/06/02 03:26:53;;;;;;;37.20;22.42;;;;;;;6.96;100.00;101704.25;5084634;28;20020;-79
2022/06/02 03:29:55;;;;;;;44.10;24.25;;;;;;;6.97;100.00;101695.13;5088663;28;20047;-78
2022/06/02 03:32:24;;;;;;;41.70;22.90;;;;;;;7.08;100.00;101712.75;5094811;28;20491;-79
2022/06/02 03:35:18;;;;;;;42.17;23.67;;;;;;;7.25;100.00;101707.34;5078074;28;20047;-78
2022/06/02 03:38:06;;;;;;;37.65;22.48;;;;;;;7.28;100.00;101712.63;5083861;28;20020;-78
2022/06/02 03:40:37;;;;;;;37.58;22.42;;;;;;;7.46;100.00;101718.06;5064306;28;20364;-78
2022/06/02 03:43:46;;;;;;;40.83;23.02;;;;;;;7.45;100.00;101719.91;5088950;28;20041;-78
2022/06/02 03:46:34;;;;;;;36.60;22.98;;;;;;;7.36;100.00;101720.38;5034162;28;20487;-78
2022/06/02 03:49:33;;;;;;;36.90;21.67;;;;;;;7.24;100.00;101721.03;5062499;28;20036;-78
2022/06/02 03:52:10;;;;;;;33.72;20.13;;;;;;;7.35;100.00;101716.78;5060498;28;20045;-78
2022/06/02 03:54:54;;;;;;;40.00;21.30;;;;;;;7.29;100.00;101735.28;5078663;28;20043;-79
2022/06/02 03:57:34;;;;;;;35.08;22.40;;;;;;;7.09;100.00;101736.31;5067798;28;20082;-78
2022/06/02 04:00:11;;;;;;;35.97;22.42;;;;;;;6.99;100.00;101741.34;5080252;28;20028;-79
2022/06/02 04:03:06;;;;;;;40.78;22.45;;;;;;;7.10;100.00;101743.50;5084417;28;20025;-77
2022/06/02 04:05:58;;;;;;;35.28;22.45;;;;;;;7.38;100.00;101743.00;5093775;28;20084;-79
2022/06/02 04:08:44;;;;;;;35.72;20.75;;;;;;;7.48;100.00;101740.69;5090481;28;20036;-79
2022/06/02 04:11:29;;;;;;;39.60;23.55;;;;;;;7.45;100.00;101739.00;5079091;28;20067;-80
2022/06/02 04:14:08;;;;;;;35.88;21.77;;;;;;;7.42;100.00;101744.59;5088164;28;20040;-78
2022/06/02 04:16:49;;;;;;;32.78;20.70;;;;;;;7.55;100.00;101747.56;5091453;28;20472;-79
2022/06/02 04:22:55;;;;;;;37.30;22.33;;;;;;;7.34;100.00;101758.59;5078080;28;20037;-79
2022/06/02 04:25:54;;;;;;;38.10;23.25;;;;;;;7.38;100.00;101758.44;5078922;28;20116;-79
2022/06/02 04:28:45;;;;;;;37.30;22.67;;;;;;;7.52;100.00;101758.63;5081734;28;20033;-79
2022/06/02 04:31:29;;;;;;;38.90;24.08;;;;;;;7.70;100.00;101759.50;5080353;28;20029;-80
2022/06/02 04:34:26;;;;;;;39.97;25.10;;;;;;;7.87;100.00;101764.97;5079008;28;20547;-79
2022/06/02 04:36:57;;;;;;;44.58;25.05;;;;;;;7.85;100.00;101764.13;5091574;28;20379;-79
2022/06/02 04:39:43;;;;;;;42.30;24.80;;;;;;;7.98;100.00;101766.22;5073426;28;20036;-78
2022/06/02 04:42:57;;;;;;;37.88;24.50;;;;;;;8.05;100.00;101770.38;5107048;28;20024;-78
2022/06/02 04:45:38;;;;;;;35.83;23.05;;;;;;;8.18;100.00;101773.34;5036852;28;20040;-77
2022/06/02 04:48:20;;;;;;;40.90;23.98;;;;;;;8.22;100.00;101773.09;5071589;28;20428;-79
2022/06/02 04:51:24;;;;;;;38.42;23.88;;;;;;;8.29;100.00;101779.09;5086569;28;20044;-77
2022/06/02 04:54:09;;;;;;;42.00;24.75;;;;;;;8.25;100.00;101777.50;5112717;28;20032;-78
2022/06/02 04:56:47;;;;;;;36.88;22.40;;;;;;;8.26;100.00;101771.97;5089616;28;20069;-78
2022/06/02 04:59:43;;;;;;;34.63;23.92;;;;;;;8.33;100.00;101777.06;5078644;28;20024;-78
2022/06/02 05:02:30;;;;;;;44.35;25.75;;;;;;;8.39;100.00;101776.72;5093673;28;20036;-79
2022/06/02 05:05:25;;;;;;;40.20;25.48;;;;;;;8.48;100.00;101787.19;5107877;28;20020;-78
2022/06/02 05:08:12;;;;;;;51.65;28.90;;;;;;;8.58;100.00;101782.09;5095065;28;20047;-77
2022/06/02 05:10:41;;;;;;;50.05;29.65;;;;;;;8.66;100.00;101788.00;5098939;28;20056;-78
2022/06/02 05:13:12;;;;;;;48.40;30.55;;;;;;;8.70;100.00;101781.41;5097048;28;20044;-78
2022/06/02 05:16:16;;;;;;;55.08;31.50;;;;;;;8.93;100.00;101780.09;5098609;28;20044;-80
2022/06/02 05:18:45;;;;;;;50.85;29.92;;;;;;;9.06;100.00;101783.00;5088168;28;20019;-78
2022/06/02 05:21:19;;;;;;;50.10;29.50;;;;;;;9.05;100.00;101780.34;5086890;28;20036;-79
2022/06/02 05:23:54;;;;;;;52.25;30.10;;;;;;;9.33;100.00;101790.53;5096175;28;20103;-78
2022/06/02 05:26:44;;;;;;;44.03;28.20;;;;;;;9.52;100.00;101782.13;5098818;28;20039;-79
2022/06/02 05:29:41;;;;;;;43.78;27.67;;;;;;;9.92;100.00;101779.75;5109343;28;20037;-79
2022/06/02 05:32:34;;;;;;;44.50;27.15;;;;;;;10.28;100.00;101786.59;5105612;28;20453;-81
2022/06/02 05:35:15;;;;;;;42.58;24.75;;;;;;;10.95;100.00;101786.91;5107672;28;20032;-79
2022/06/02 05:38:00;;;;;;;39.53;25.77;;;;;;;10.99;100.00;101779.38;5100528;28;20113;-79
2022/06/02 05:40:29;;;;;;;39.20;24.63;;;;;;;11.26;100.00;101778.50;5095802;28;20028;-79
2022/06/02 05:43:06;;;;;;;38.35;24.92;;;;;;;11.54;100.00;101786.63;5100895;28;20388;-78
2022/06/02 05:46:04;;;;;;;35.25;24.13;;;;;;;11.49;100.00;101780.56;5096477;28;20147;-78
2022/06/02 05:48:49;;;;;;;32.45;22.77;;;;;;;11.94;100.00;101789.38;5082116;28;20016;-78
2022/06/02 05:51:21;;;;;;;35.00;23.30;;;;;;;12.45;100.00;101790.41;5099164;28;20043;-78
2022/06/02 05:53:59;;;;;;;;;;;;;;;12.20;100.00;101794.00;5092079;28;20039;-78
2022/06/02 05:56:45;;;;;;;33.35;21.83;;;;;;;12.92;100.00;101808.03;5092620;28;19912;-79
2022/06/02 05:59:48;;;;;;;36.60;22.77;;;;;;;13.29;100.00;101807.16;5079039;28;20033;-77
2022/06/02 06:02:51;;;;;;;35.97;20.95;;;;;;;13.22;100.00;101812.25;5099396;28;20033;-78
2022/06/02 06:05:52;;;;;;;38.78;23.70;;;;;;;12.96;100.00;101805.94;5094011;28;20032;-78
2022/06/02 06:08:45;;;;;;;35.13;22.63;;;;;;;12.76;100.00;101805.53;5098239;28;20043;-78
2022/06/02 06:11:27;;;;;;;28.25;20.50;;;;;;;13.48;100.00;101810.31;5092536;28;20037;-78
2022/06/02 06:14:12;;;;;;;29.33;21.00;;;;;;;13.56;100.00;101812.44;5074213;28;20033;-78
2022/06/02 06:16:56;;;;;;;27.85;19.95;;;;;;;14.70;100.00;101822.81;5084528;28;20551;-77
2022/06/02 06:19:37;;;;;;;25.30;19.23;;;;;;;14.69;100.00;101821.06;5089727;28;20107;-77
2022/06/02 06:22:05;;;;;;;29.52;20.05;;;;;;;15.61;100.00;101829.09;5093914;28;20036;-77
2022/06/02 06:24:56;;;;;;;25.95;18.75;;;;;;;15.76;100.00;101827.81;5084747;28;20028;-77
2022/06/02 06:27:52;;;;;;;27.70;20.13;;;;;;;14.72;100.00;101826.31;5081397;28;20499;-77
2022/06/02 06:30:27;;;;;;;31.00;18.85;;;;;;;15.01;100.00;101826.69;5056646;28;20484;-76
2022/06/02 06:33:19;;;;;;;31.30;17.55;;;;;;;15.22;100.00;101829.56;5047757;28;20037;-77
2022/06/02 06:35:58;;;;;;;27.60;18.35;;;;;;;15.46;100.00;101827.63;5055282;28;20040;-77
2022/06/02 06:38:45;;;;;;;30.17;19.60;;;;;;;15.22;100.00;101834.22;5069852;28;20079;-77
2022/06/02 06:41:23;;;;;;;33.33;20.42;;;;;;;15.79;100.00;101832.22;5053919;28;20036;-77
2022/06/02 06:44:09;;;;;;;30.90;19.73;;;;;;;15.34;100.00;101838.69;5058415;28;20091;-77
2022/06/02 06:46:46;;;;;;;26.55;19.00;;;;;;;16.13;100.00;101846.75;5063210;28;20479;-78
2022/06/02 06:49:21;;;;;;;30.50;20.25;;;;;;;15.63;100.00;101843.66;5059238;28;20020;-77
2022/06/02 06:52:20;;;;;;;27.42;18.85;;;;;;;15.98;100.00;101850.81;5071034;28;20036;-77
2022/06/02 06:55:25;;;;;;;24.38;16.95;;;;;;;17.22;100.00;101849.13;5076831;28;20036;-77
2022/06/02 06:57:59;;;;;;;25.15;18.70;;;;;;;16.22;100.00;101850.59;5059830;28;20097;-77
2022/06/02 07:00:43;;;;;;;30.45;21.50;;;;;;;16.24;100.00;101851.31;5073237;28;20582;-78
2022/06/02 07:03:15;;;;;;;23.98;16.77;;;;;;;17.11;100.00;101855.63;5065919;28;20480;-77
2022/06/02 07:06:13;;;;;;;21.58;15.57;;;;;;;17.19;100.00;101863.25;5067624;28;20059;-77
2022/06/02 07:08:54;;;;;;;20.92;15.52;;;;;;;17.71;100.00;101863.06;5057425;28;20041;-77
2022/06/02 07:14:56;;;;;;;20.40;15.55;;;;;;;17.68;100.00;101863.38;5066811;28;20106;-76
2022/06/02 07:17:55;;;;;;;26.48;15.95;;;;;;;16.73;100.00;101869.09;5066625;28;20037;-77
2022/06/02 07:20:39;;;;;;;21.83;16.00;;;;;;;17.01;100.00;101863.03;5068440;28;20415;-78
2022/06/02 07:23:34;;;;;;;19.52;13.23;;;;;;;17.35;100.00;101866.34;5062240;28;20132;-77
2022/06/02 07:26:22;;;;;;;18.02;14.13;;;;;;;18.40;97.45;101877.84;5060330;28;20036;-77
2022/06/02 07:28:53;;;;;;;17.92;14.25;;;;;;;17.48;100.00;101867.97;5064509;28;20059;-78
2022/06/02 07:32:07;;;;;;;25.70;16.90;;;;;;;16.99;100.00;101868.69;5077477;28;20040;-78
2022/06/02 07:34:42;;;;;;;26.67;16.58;;;;;;;17.33;100.00;101870.25;4998041;28;20061;-78
2022/06/02 07:37:29;;;;;;;23.08;16.00;;;;;;;16.02;100.00;101874.44;4968540;28;20362;-80
2022/06/02 07:40:08;;;;;;;24.30;15.88;;;;;;;15.85;100.00;101881.38;4983340;28;20057;-79
2022/06/02 07:42:59;;;;;;;21.10;15.05;;;;;;;15.54;100.00;101877.53;5014586;28;20033;-78
2022/06/02 07:45:35;;;;;;;18.42;11.77;;;;;;;18.14;100.00;101879.31;5036528;28;20072;-78
2022/06/02 07:48:24;;;;;;;22.42;12.80;;;;;;;16.96;100.00;101877.28;5085107;28;20029;-78
2022/06/02 07:51:29;;;;;;;21.52;14.20;;;;;;;16.32;100.00;101870.00;5078123;28;20074;-78
2022/06/02 07:54:07;;;;;;;25.55;16.30;;;;;;;16.17;100.00;101875.84;5076207;28;20444;-78
2022/06/02 07:56:51;;;;;;;27.88;16.75;;;;;;;16.49;100.00;101877.69;5076560;28;20063;-78
2022/06/02 07:59:20;;;;;;;25.92;16.67;;;;;;;17.65;100.00;101872.84;5078330;28;20036;-78
2022/06/02 08:02:10;;;;;;;23.08;16.05;;;;;;;17.74;100.00;101877.53;5075434;28;20048;-79
2022/06/02 08:05:07;;;;;;;22.52;15.45;;;;;;;18.03;99.67;101868.38;5077140;28;20051;-80
2022/06/02 08:07:50;;;;;;;25.85;15.73;;;;;;;17.80;100.00;101865.84;5080965;28;20404;-78
2022/06/02 08:10:34;;;;;;;22.40;16.02;;;;;;;18.63;97.48;101870.09;5082935;28;20036;-78
2022/06/02 08:13:19;;;;;;;18.80;13.55;;;;;;;18.81;88.98;101868.28;5063164;28;20032;-77
2022/06/02 08:15:55;;;;;;;17.73;11.15;;;;;;;20.82;76.36;101868.22;5087195;28;20032;-78
2022/06/02 08:18:39;;;;;;;13.07;9.52;;;;;;;19.90;77.63;101872.31;5074157;28;20044;-78
2022/06/02 08:21:21;;;;;;;21.67;15.73;;;;;;;19.59;81.99;101864.28;5074701;28;20063;-79
2022/06/02 08:23:57;;;;;;;21.73;15.23;;;;;;;19.56;83.89;101871.06;5086663;28;20032;-81
2022/06/02 08:26:41;;;;;;;21.40;13.93;;;;;;;19.29;81.64;101861.69;5082979;28;20062;-79
2022/06/02 08:29:28;;;;;;;24.75;16.35;;;;;;;19.01;84.30;101866.34;5074828;28;20048;-79
2022/06/02 08:32:44;;;;;;;23.92;16.33;;;;;;;19.97;81.95;101860.41;5059126;28;20036;-79
2022/06/02 08:35:23;;;;;;;18.50;12.35;;;;;;;19.25;82.20;101874.13;5000300;28;20056;-78
2022/06/02 08:38:16;;;;;;;20.27;12.60;;;;;;;19.63;83.59;101874.06;5037672;28;20055;-78
2022/06/02 08:41:28;;;;;;;20.65;12.00;;;;;;;21.33;69.19;101878.59;5094391;28;20031;-78
2022/06/02 08:44:19;;;;;;;21.30;12.80;;;;;;;19.13;80.69;101877.25;5104176;28;20044;-78
2022/06/02 08:47:22;;;;;;;17.42;12.18;;;;;;;20.55;72.49;101877.59;5077130;28;20039;-79
2022/06/02 08:50:12;;;;;;;18.80;13.80;;;;;;;19.67;79.28;101877.41;5078671;28;20032;-78
2022/06/02 08:52:57;;;;;;;21.45;14.13;;;;;;;20.24;76.24;101880.81;5096257;28;20028;-77
2022/06/02 08:55:43;;;;;;;21.80;14.95;;;;;;;19.84;77.01;101882.16;5078907;28;20059;-77
2022/06/02 08:58:30;;;;;;;27.63;15.80;;;;;;;18.87;80.50;101878.81;5080315;28;20039;-77
2022/06/02 09:01:31;;;;;;;26.98;15.85;;;;;;;18.50;84.82;101874.03;5080707;28;20067;-79
2022/06/02 09:04:06;;;;;;;24.30;11.90;;;;;;;21.04;68.37;101882.66;5095642;28;20036;-79
2022/06/02 09:07:16;;;;;;;18.38;11.93;;;;;;;19.62;76.14;101873.19;5097370;28;20368;-79
2022/06/02 09:09:53;;;;;;;22.63;13.50;;;;;;;20.23;71.76;101875.41;5046550;28;20118;-78
2022/06/02 09:12:37;;;;;;;22.17;13.50;;;;;;;20.23;70.62;101879.03;5079470;28;20115;-79
2022/06/02 09:15:27;;;;;;;25.45;16.13;;;;;;;19.16;78.96;101880.59;5078061;28;20387;-77
2022/06/02 09:18:29;;;;;;;22.27;13.75;;;;;;;20.15;77.25;101876.19;5079407;28;20036;-77
2022/06/02 09:21:21;;;;;;;21.27;14.15;;;;;;;20.38;74.39;101876.56;5075914;28;20032;-79
2022/06/02 09:24:05;;;;;;;22.08;14.98;;;;;;;20.34;74.33;101872.38;5078258;28;20020;-78
2022/06/02 09:26:59;;;;;;;25.83;15.13;;;;;;;20.20;72.00;101885.81;5067071;28;20020;-79
2022/06/02 09:29:42;;;;;;;26.35;14.43;;;;;;;20.63;72.36;101879.53;5086486;28;20100;-77
2022/06/02 09:32:28;;;;;;;27.27;16.10;;;;;;;20.92;70.21;101873.69;5084230;28;20036;-78
2022/06/02 09:35:01;;;;;;;30.80;17.77;;;;;;;20.12;72.05;101873.72;5079422;28;20032;-78
2022/06/02 09:37:45;;;;;;;34.50;17.00;;;;;;;19.71;74.19;101876.94;5066477;28;20052;-78
2022/06/02 09:40:51;;;;;;;28.77;17.42;;;;;;;20.64;70.60;101875.75;5079556;28;20039;-78
2022/06/02 09:43:41;;;;;;;31.20;16.63;;;;;;;21.97;62.71;101876.22;5076599;28;20044;-77
2022/06/02 09:46:19;;;;;;;26.02;17.02;;;;;;;21.44;65.13;101889.44;5086349;28;20036;-78
2022/06/02 09:49:07;;;;;;;28.42;16.85;;;;;;;21.16;66.77;101872.97;5094713;28;20062;-78
2022/06/02 09:51:47;;;;;;;30.63;15.77;;;;;;;21.55;66.49;101871.59;5087438;28;20020;-78
2022/06/02 09:54:22;;;;;;;27.77;17.77;;;;;;;21.92;65.02;101885.09;5080724;28;20048;-78
2022/06/02 09:57:55;;;;;;;28.83;17.73;;;;;;;21.16;68.97;101875.75;5067517;28;20036;-78
2022/06/02 10:00:34;;;;;;;32.78;18.77;;;;;;;20.43;71.09;101878.88;5091549;28;20074;-79
2022/06/02 10:03:15;;;;;;;34.20;19.25;;;;;;;20.26;72.64;101873.16;5085704;28;20048;-78
2022/06/02 10:05:52;;;;;;;31.92;17.90;;;;;;;21.34;68.33;101884.00;5093207;28;20124;-78
2022/06/02 10:08:54;;;;;;;30.38;17.80;;;;;;;20.55;65.31;101880.38;5094513;28;20046;-78
2022/06/02 10:11:36;;;;;;;32.88;17.45;;;;;;;21.01;62.23;101867.13;5085529;28;20043;-78
2022/06/02 10:14:15;;;;;;;30.65;18.10;;;;;;;20.74;64.83;101871.84;5083678;28;20031;-77
2022/06/02 10:17:28;;;;;;;34.78;19.42;;;;;;;20.63;65.63;101863.78;5077455;28;20024;-77
2022/06/02 10:20:04;;;;;;;30.67;16.20;;;;;;;20.69;67.00;101868.69;5078040;28;20058;-79
2022/06/02 10:22:57;;;;;;;28.42;17.48;;;;;;;22.23;61.04;101869.63;5085199;28;20302;-80
2022/06/02 10:25:49;;;;;;;;;;;;;;;20.90;66.86;101865.50;5074577;28;20031;-77
2022/06/02 10:28:27;;;;;;;34.20;17.83;;;;;;;21.39;63.36;101866.78;5080854;28;19942;-78
2022/06/02 10:31:09;;;;;;;35.47;20.33;;;;;;;21.17;64.73;101862.69;5087910;28;20059;-77
2022/06/02 10:33:44;;;;;;;39.77;19.47;;;;;;;21.55;62.77;101868.81;5088115;28;20039;-76
2022/06/02 10:36:39;;;;;;;31.48;19.48;;;;;;;21.37;67.22;101861.38;5081611;28;20036;-78
2022/06/02 10:39:07;;;;;;;33.95;19.17;;;;;;;20.95;68.61;101859.44;5079535;28;20041;-81
2022/06/02 10:41:55;;;;;;;31.23;18.27;;;;;;;21.87;64.78;101858.78;5083579;28;20025;-77
2022/06/02 10:44:58;;;;;;;40.75;21.75;;;;;;;21.49;63.12;101848.03;5061756;28;20032;-78
2022/06/02 10:47:36;;;;;;;43.33;21.65;;;;;;;20.99;65.02;101841.38;5090488;28;20063;-77
2022/06/02 10:50:23;;;;;;;36.95;20.27;;;;;;;22.06;58.47;101854.81;5073034;28;20028;-78
2022/06/02 10:53:04;;;;;;;40.53;20.52;;;;;;;20.71;63.73;101849.00;5077245;28;20040;-77
2022/06/02 10:55:51;;;;;;;37.13;19.20;;;;;;;21.27;61.04;101852.31;5089237;28;20427;-78
2022/06/02 10:58:36;;;;;;;34.00;19.10;;;;;;;20.95;59.91;101844.66;5108811;28;20084;-77
2022/06/02 11:01:10;;;;;;;32.53;18.83;;;;;;;21.92;58.18;101853.56;5099042;28;20173;-77
2022/06/02 11:03:54;;;;;;;33.65;20.67;;;;;;;21.87;57.28;101851.28;5078779;28;20383;-77
2022/06/02 11:06:59;;;;;;;34.67;21.65;;;;;;;20.52;63.59;101845.38;5081463;28;20035;-77
2022/06/02 11:09:47;;;;;;;38.15;20.23;;;;;;;21.67;61.91;101846.00;5102762;28;20035;-77
2022/06/02 11:12:21;;;;;;;34.97;19.48;;;;;;;21.61;63.84;101840.25;5113049;28;20032;-77
2022/06/02 11:15:23;;;;;;;39.00;21.35;;;;;;;21.96;58.86;101853.03;5086424;28;20417;-76
2022/06/02 11:17:59;;;;;;;38.35;19.98;;;;;;;22.24;61.77;101840.69;5086773;28;20051;-77
2022/06/02 11:21:02;;;;;;;41.25;21.45;;;;;;;21.65;57.04;101841.66;5073689;28;20024;-78
2022/06/02 11:23:33;;;;;;;36.90;22.30;;;;;;;21.53;58.71;101840.22;5074618;28;20028;-77
2022/06/02 11:26:24;;;;;;;39.97;21.52;;;;;;;21.12;65.12;101829.78;5074485;28;20123;-77
2022/06/02 11:29:05;;;;;;;36.88;21.42;;;;;;;21.28;59.67;101828.94;5093696;28;20044;-79
2022/06/02 11:31:59;;;;;;;40.60;22.83;;;;;;;20.80;61.37;101839.69;5084442;28;20363;-77
2022/06/02 11:34:40;;;;;;;41.22;22.05;;;;;;;20.91;60.08;101822.69;5075130;28;20040;-77
2022/06/02 11:37:17;;;;;;;30.90;18.90;;;;;;;20.46;60.95;101829.34;5058765;28;20048;-79
2022/06/02 11:39:43;;;;;;;31.38;19.38;;;;;;;20.55;59.23;101828.38;5075973;28;20103;-78
2022/06/02 11:42:37;;;;;;;31.55;19.30;;;;;;;20.31;60.48;101815.13;5076830;28;20905;-77
2022/06/02 11:45:18;;;;;;;30.80;18.35;;;;;;;20.63;62.47;101816.47;5098222;28;20123;-78
2022/06/02 11:48:06;;;;;;;26.10;15.15;;;;;;;20.82;57.13;101829.25;5068863;28;20381;-78
2022/06/02 11:51:10;;;;;;;24.52;13.85;;;;;;;20.91;59.32;101819.06;5076472;28;20032;-77
2022/06/02 11:54:07;;;;;;;27.58;12.45;;;;;;;20.89;56.56;101809.97;5092103;28;20046;-79
2022/06/02 11:56:46;;;;;;;20.45;12.60;;;;;;;20.48;61.53;101809.69;5094361;28;20024;-77
2022/06/02 11:59:30;;;;;;;22.90;14.90;;;;;;;20.31;62.86;101804.00;5103924;28;20045;-79
2022/06/02 12:02:22;;;;;;;26.60;14.38;;;;;;;21.07;62.41;101798.75;5077684;28;20032;-78
2022/06/02 12:05:00;;;;;;;22.65;14.57;;;;;;;20.95;62.51;101798.19;5088387;28;20032;-77
2022/06/02 12:07:27;;;;;;;28.52;14.48;;;;;;;21.23;63.07;101789.59;5095211;28;20031;-79
2022/06/02 12:10:30;;;;;;;27.02;14.70;;;;;;;20.80;61.63;101792.38;5077738;28;20028;-78
2022/06/02 12:13:17;;;;;;;25.13;13.60;;;;;;;20.99;62.77;101790.34;5078508;28;20028;-78
2022/06/02 12:16:05;;;;;;;22.60;14.63;;;;;;;21.02;60.38;101790.91;5076018;28;20028;-78
2022/06/02 12:18:55;;;;;;;24.75;14.20;;;;;;;20.81;59.23;101785.78;5058360;28;20024;-79
2022/06/02 12:21:23;;;;;;;22.38;12.88;;;;;;;20.42;58.54;101780.63;5069250;28;20119;-78
2022/06/02 12:23:49;;;;;;;17.83;11.50;;;;;;;19.77;62.11;101776.28;5078180;28;20379;-78
2022/06/02 12:26:27;;;;;;;17.40;11.88;;;;;;;20.64;57.06;101770.88;5074990;28;20503;-78
2022/06/02 12:29:16;;;;;;;17.80;10.75;;;;;;;20.72;60.79;101778.41;5073233;28;20365;-77
2022/06/02 12:32:11;;;;;;;16.10;10.27;;;;;;;20.87;56.95;101776.75;5076835;28;20369;-79
2022/06/02 12:35:03;;;;;;;17.13;9.70;;;;;;;20.82;57.14;101776.38;5065597;28;20032;-79
2022/06/02 12:37:49;;;;;;;14.07;9.70;;;;;;;20.73;55.93;101769.88;5055381;28;20048;-80
2022/06/02 12:40:33;;;;;;;15.48;9.25;;;;;;;20.91;56.04;101763.38;5079825;28;20036;-80
2022/06/02 12:43:18;;;;;;;14.80;9.63;;;;;;;20.83;56.45;101766.13;5095601;28;20062;-78
2022/06/02 12:45:48;;;;;;;14.25;9.52;;;;;;;20.78;58.07;101761.03;5074916;28;20032;-78